createdAt,value
2023-01-20T00:02:03.543Z,30.61
2023-01-20T00:04:36.737Z,30.97
2023-01-20T00:07:08.581Z,31.20
2023-01-20T00:09:36.730Z,31.06
2023-01-20T00:12:12.554Z,30.92
2023-01-20T00:14:40.791Z,31.64
2023-01-20T00:17:14.480Z,31.15
2023-01-20T00:19:44.092Z,31.47
2023-01-20T00:22:12.270Z,31.49
2023-01-20T00:24:43.150Z,31.78
2023-01-20T00:27:21.261Z,31.46
2023-01-20T00:29:49.511Z,31.36
2023-01-20T00:32:22.487Z,31.73
2023-01-20T00:34:58.564Z,32.00
2023-01-20T00:37:36.766Z,31.28
2023-01-20T00:40:10.054Z,31.38
2023-01-20T00:42:41.226Z,31.34
2023-01-20T00:45:15.176Z,31.21
2023-01-20T00:47:44.024Z,31.34
2023-01-20T00:50:12.220Z,31.14
2023-01-20T00:52:43.866Z,31.46
2023-01-20T00:55:15.056Z,31.23
2023-01-20T00:57:53.830Z,31.54
2023-01-20T01:00:23.926Z,31.33
2023-01-20T01:02:54.983Z,31.19
2023-01-20T01:05:23.467Z,31.35
2023-01-20T01:07:56.447Z,31.54
2023-01-20T01:10:27.909Z,31.56
2023-01-20T01:13:01.427Z,31.58
2023-01-20T01:15:32.405Z,31.27
2023-01-20T01:18:09.736Z,31.46
2023-01-20T01:20:40.368Z,31.61
2023-01-20T01:23:08.641Z,31.56
2023-01-20T01:25:41.749Z,31.52
2023-01-20T01:28:22.004Z,31.60
2023-01-20T01:33:45.785Z,31.48
2023-01-20T01:36:16.731Z,31.47
2023-01-20T01:38:57.697Z,31.42
2023-01-20T01:41:27.837Z,31.54
2023-01-20T01:44:01.754Z,31.64
2023-01-20T01:46:37.330Z,31.40
2023-01-20T01:49:13.151Z,31.39
2023-01-20T01:51:52.883Z,31.50
2023-01-20T01:54:28.441Z,31.57
2023-01-20T01:56:59.957Z,31.84
2023-01-20T01:59:33.499Z,31.54
2023-01-20T02:02:09.384Z,31.73
2023-01-20T02:04:44.480Z,31.96
2023-01-20T02:07:16.047Z,31.67
2023-01-20T02:09:49.545Z,31.80
2023-01-20T02:12:31.027Z,31.78
2023-01-20T02:15:01.777Z,32.17
2023-01-20T02:17:30.137Z,31.43
2023-01-20T02:20:00.064Z,31.12
2023-01-20T02:22:34.695Z,31.71
2023-01-20T02:25:11.166Z,31.56
2023-01-20T02:27:43.834Z,31.95
2023-01-20T02:30:14.373Z,31.71
2023-01-20T02:32:45.719Z,31.94
2023-01-20T02:35:22.418Z,31.63
2023-01-20T02:37:54.137Z,31.55
2023-01-20T02:40:32.453Z,31.49
2023-01-20T02:43:01.655Z,31.69
2023-01-20T02:45:36.734Z,31.56
2023-01-20T02:48:04.890Z,31.80
2023-01-20T02:50:33.488Z,31.71
2023-01-20T02:53:05.751Z,31.73
2023-01-20T02:55:39.758Z,31.59
2023-01-20T02:58:15.925Z,31.46
2023-01-20T03:00:44.684Z,31.79
2023-01-20T03:03:16.057Z,31.51
2023-01-20T03:05:44.439Z,32.00
2023-01-20T03:08:18.327Z,31.63
2023-01-20T03:10:49.495Z,32.02
2023-01-20T03:13:17.330Z,31.51
2023-01-20T03:15:45.155Z,31.84
2023-01-20T03:18:13.036Z,31.55
2023-01-20T03:20:40.815Z,31.72
2023-01-20T03:23:08.621Z,31.71
2023-01-20T03:25:36.403Z,31.80
2023-01-20T03:28:04.238Z,32.20
2023-01-20T03:30:32.146Z,31.75
2023-01-20T03:33:00.012Z,31.75
2023-01-20T03:35:27.784Z,31.99
2023-01-20T03:37:55.574Z,31.83
2023-01-20T03:40:23.413Z,32.11
2023-01-20T03:42:52.718Z,32.10
2023-01-20T03:45:20.544Z,31.95
2023-01-20T03:47:48.359Z,32.15
2023-01-20T03:50:16.154Z,32.32
2023-01-20T03:52:47.756Z,31.86
2023-01-20T03:55:16.846Z,32.14
2023-01-20T03:57:44.856Z,32.15
2023-01-20T04:00:12.612Z,32.11
2023-01-20T04:02:40.428Z,32.16
2023-01-20T04:05:08.394Z,31.92
2023-01-20T04:07:36.215Z,31.99
2023-01-20T04:10:03.982Z,32.34
2023-01-20T04:12:31.730Z,32.30
2023-01-20T04:14:59.526Z,32.19
2023-01-20T04:17:27.370Z,32.55
2023-01-20T04:19:55.219Z,32.71
2023-01-20T04:22:22.954Z,32.52
2023-01-20T04:24:50.723Z,32.55
2023-01-20T04:27:18.518Z,32.59
2023-01-20T04:29:46.321Z,32.71
2023-01-20T04:32:14.099Z,32.68
2023-01-20T04:34:41.923Z,32.58
2023-01-20T04:37:09.748Z,32.12
2023-01-20T04:39:37.567Z,32.34
2023-01-20T04:42:05.408Z,32.52
2023-01-20T04:44:33.274Z,32.29
2023-01-20T04:47:01.149Z,32.59
2023-01-20T04:49:28.907Z,32.52
2023-01-20T04:51:56.708Z,32.57
2023-01-20T04:54:24.536Z,32.43
2023-01-20T04:56:52.369Z,32.35
2023-01-20T04:59:20.400Z,32.18
2023-01-20T05:01:48.373Z,32.29
2023-01-20T05:04:16.259Z,32.31
2023-01-20T05:06:45.169Z,32.62
2023-01-20T05:09:12.967Z,32.40
2023-01-20T05:11:40.825Z,32.51
2023-01-20T05:14:08.591Z,32.35
2023-01-20T05:16:36.431Z,32.53
2023-01-20T05:19:04.221Z,32.68
2023-01-20T05:21:32.028Z,32.37
2023-01-20T05:23:59.819Z,32.60
2023-01-20T05:26:27.622Z,32.74
2023-01-20T05:28:55.391Z,32.69
2023-01-20T05:31:23.227Z,32.82
2023-01-20T05:33:51.064Z,32.98
2023-01-20T05:36:18.852Z,33.29
2023-01-20T05:38:46.657Z,33.18
2023-01-20T05:41:14.491Z,33.11
2023-01-20T05:43:42.280Z,33.11
2023-01-20T05:46:10.197Z,32.92
2023-01-20T05:48:38.037Z,32.71
2023-01-20T05:51:05.863Z,32.77
2023-01-20T05:53:33.668Z,33.06
2023-01-20T05:56:02.014Z,33.04
2023-01-20T05:58:29.834Z,32.69
2023-01-20T06:00:57.670Z,33.04
2023-01-20T06:03:25.453Z,32.65
2023-01-20T06:05:53.297Z,32.91
2023-01-20T06:08:21.173Z,32.92
2023-01-20T06:10:50.576Z,32.32
2023-01-20T06:13:18.436Z,32.79
2023-01-20T06:15:46.248Z,32.72
2023-01-20T06:18:14.131Z,32.41
2023-01-20T06:20:41.975Z,32.58
2023-01-20T06:23:09.738Z,32.54
2023-01-20T06:25:37.492Z,32.79
2023-01-20T06:28:05.291Z,32.53
2023-01-20T06:30:33.062Z,32.81
2023-01-20T06:33:00.856Z,32.50
2023-01-20T06:35:28.631Z,32.80
2023-01-20T06:37:56.427Z,32.31
2023-01-20T06:40:24.185Z,32.31
2023-01-20T06:42:51.996Z,32.69
2023-01-20T06:45:19.758Z,32.73
2023-01-20T06:47:47.488Z,32.38
2023-01-20T06:50:15.273Z,32.48
2023-01-20T06:52:43.037Z,32.70
2023-01-20T06:55:10.791Z,32.77
2023-01-20T06:57:38.521Z,32.38
2023-01-20T07:00:06.279Z,32.29
2023-01-20T07:02:34.100Z,32.78
2023-01-20T07:05:02.592Z,32.73
2023-01-20T07:07:30.370Z,32.63
2023-01-20T07:09:58.821Z,32.43
2023-01-20T07:12:26.589Z,32.40
2023-01-20T07:14:54.376Z,32.39
2023-01-20T07:17:22.152Z,32.83
2023-01-20T07:19:49.976Z,32.42
2023-01-20T07:22:17.710Z,32.54
2023-01-20T07:24:45.509Z,32.75
2023-01-20T07:27:15.085Z,32.84
2023-01-20T07:29:43.059Z,32.81
2023-01-20T07:32:10.874Z,32.75
2023-01-20T07:34:38.639Z,32.88
2023-01-20T07:37:06.379Z,32.75
2023-01-20T07:39:36.285Z,32.63
2023-01-20T07:42:04.112Z,32.64
2023-01-20T07:44:32.151Z,32.55
2023-01-20T07:46:59.938Z,32.42
2023-01-20T07:49:27.772Z,32.28
2023-01-20T07:51:55.611Z,32.28
2023-01-20T07:54:23.413Z,32.23
2023-01-20T07:56:51.228Z,32.36
2023-01-20T07:59:19.047Z,32.37
2023-01-20T08:01:46.979Z,32.34
2023-01-20T08:04:14.790Z,32.30
2023-01-20T08:06:42.581Z,32.67
2023-01-20T08:09:12.328Z,32.39
2023-01-20T08:11:40.281Z,32.40
2023-01-20T08:14:08.118Z,31.95
2023-01-20T08:16:36.005Z,32.21
2023-01-20T08:19:03.783Z,32.10
2023-01-20T08:21:31.807Z,32.24
2023-01-20T08:23:59.610Z,32.11
2023-01-20T08:26:28.292Z,32.38
2023-01-20T08:28:56.269Z,31.99
2023-01-20T08:31:24.265Z,32.07
2023-01-20T08:33:52.136Z,32.05
2023-01-20T08:36:19.937Z,32.20
2023-01-20T08:38:47.963Z,32.09
2023-01-20T08:41:15.755Z,32.13
2023-01-20T08:43:43.571Z,32.24
2023-01-20T08:46:11.401Z,32.22
2023-01-20T08:48:39.303Z,32.26
2023-01-20T08:51:07.731Z,31.98
2023-01-20T08:53:35.644Z,32.07
2023-01-20T08:56:03.454Z,32.14
2023-01-20T08:58:31.296Z,32.60
2023-01-20T09:00:59.257Z,32.11
2023-01-20T09:03:27.122Z,32.23
2023-01-20T09:05:54.908Z,32.41
2023-01-20T09:08:26.990Z,32.51
2023-01-20T09:10:57.573Z,32.49
2023-01-20T09:13:25.440Z,32.20
2023-01-20T09:15:53.248Z,32.05
2023-01-20T09:18:21.062Z,32.42
2023-01-20T09:20:48.965Z,32.62
2023-01-20T09:23:16.814Z,32.28
2023-01-20T09:25:44.624Z,31.88
2023-01-20T09:28:14.318Z,32.12
2023-01-20T09:30:44.619Z,32.20
2023-01-20T09:33:12.649Z,32.41
2023-01-20T09:35:40.408Z,32.31
2023-01-20T09:38:25.849Z,32.28
2023-01-20T09:41:10.952Z,32.30
2023-01-20T09:43:56.933Z,32.10
2023-01-20T09:46:24.723Z,31.64
2023-01-20T09:49:09.926Z,30.00
2023-01-20T09:51:55.043Z,28.63
2023-01-20T09:54:22.810Z,28.05
2023-01-20T09:56:51.928Z,27.88
2023-01-20T09:59:19.754Z,28.04
2023-01-20T10:01:47.568Z,28.18
2023-01-20T10:04:15.623Z,27.75
2023-01-20T10:06:43.401Z,28.26
2023-01-20T10:09:11.171Z,28.56
2023-01-20T10:11:39.009Z,28.89
2023-01-20T10:14:06.896Z,28.77
2023-01-20T10:16:34.657Z,28.98
2023-01-20T10:19:02.398Z,29.03
2023-01-20T10:21:30.356Z,29.31
2023-01-20T10:23:58.092Z,29.38
2023-01-20T10:26:25.871Z,29.59
2023-01-20T10:28:53.628Z,29.89
2023-01-20T10:31:21.400Z,29.98
2023-01-20T10:33:49.197Z,30.25
2023-01-20T10:36:16.961Z,30.33
2023-01-20T10:38:44.695Z,30.59
2023-01-20T10:41:14.613Z,30.55
2023-01-20T10:43:43.401Z,30.95
2023-01-20T10:46:12.557Z,30.77
2023-01-20T10:48:40.454Z,30.92
2023-01-20T10:51:13.440Z,31.16
2023-01-20T10:53:41.274Z,31.01
2023-01-20T10:56:09.087Z,31.36
2023-01-20T10:58:36.936Z,31.63
2023-01-20T11:01:04.715Z,31.84
2023-01-20T11:03:32.504Z,31.87
2023-01-20T11:06:00.246Z,31.99
2023-01-20T11:08:28.029Z,32.50
2023-01-20T11:10:55.860Z,31.84
2023-01-20T11:13:23.697Z,32.14
2023-01-20T11:15:52.157Z,31.95
2023-01-20T11:18:19.987Z,32.37
2023-01-20T11:20:47.912Z,32.27
2023-01-20T11:23:15.716Z,32.35
2023-01-20T11:25:43.550Z,32.14
2023-01-20T11:28:11.382Z,32.33
2023-01-20T11:30:39.187Z,32.22
2023-01-20T11:33:07.044Z,32.45
2023-01-20T11:35:34.814Z,31.86
2023-01-20T11:38:02.629Z,31.98
2023-01-20T11:40:30.424Z,32.11
2023-01-20T11:42:58.277Z,32.05
2023-01-20T11:45:26.085Z,32.38
2023-01-20T11:47:53.909Z,32.07
2023-01-20T11:50:21.658Z,32.07
2023-01-20T11:52:49.456Z,32.16
2023-01-20T11:55:17.294Z,32.12
2023-01-20T11:57:45.456Z,32.23
2023-01-20T12:00:14.050Z,32.27
2023-01-20T12:02:42.156Z,32.45
2023-01-20T12:05:09.934Z,32.03
2023-01-20T12:07:37.700Z,32.72
2023-01-20T12:10:08.670Z,32.54
2023-01-20T12:12:36.441Z,32.50
2023-01-20T12:15:04.698Z,32.30
2023-01-20T12:17:32.474Z,32.44
2023-01-20T12:20:00.415Z,32.47
2023-01-20T12:22:28.145Z,32.52
2023-01-20T12:25:11.661Z,32.07
2023-01-20T12:27:39.408Z,31.90
2023-01-20T12:30:07.183Z,32.05
2023-01-20T12:32:34.940Z,32.12
2023-01-20T12:35:02.746Z,31.85
2023-01-20T12:37:30.646Z,32.18
2023-01-20T12:39:58.440Z,32.18
2023-01-20T12:42:26.262Z,32.07
2023-01-20T12:44:54.201Z,32.07
2023-01-20T12:47:22.039Z,32.19
2023-01-20T12:49:49.861Z,32.72
2023-01-20T12:52:17.751Z,32.33
2023-01-20T12:54:48.783Z,32.63
2023-01-20T12:57:16.982Z,32.54
2023-01-20T12:59:44.720Z,32.44
2023-01-20T13:02:12.472Z,33.02
2023-01-20T13:04:40.235Z,32.85
2023-01-20T13:07:08.080Z,32.91
2023-01-20T13:09:35.824Z,32.79
2023-01-20T13:12:03.690Z,32.91
2023-01-20T13:14:31.932Z,33.07
2023-01-20T13:16:59.798Z,33.12
2023-01-20T13:19:27.617Z,33.37
2023-01-20T13:22:07.221Z,33.26
2023-01-20T13:24:35.819Z,32.90
2023-01-20T13:27:03.676Z,33.21
2023-01-20T13:29:31.459Z,33.34
2023-01-20T13:31:59.550Z,33.04
2023-01-20T13:34:27.699Z,33.17
2023-01-20T13:36:55.504Z,32.65
2023-01-20T13:39:25.453Z,32.42
2023-01-20T13:41:53.458Z,32.14
2023-01-20T13:44:21.473Z,32.74
2023-01-20T13:46:49.204Z,32.85
2023-01-20T13:49:16.968Z,32.63
2023-01-20T13:51:45.043Z,32.64
2023-01-20T13:54:12.821Z,32.48
2023-01-20T13:56:40.576Z,32.45
2023-01-20T13:59:08.310Z,32.34
2023-01-20T14:01:39.444Z,32.38
2023-01-20T14:04:07.315Z,32.32
2023-01-20T14:06:37.275Z,32.24
2023-01-20T14:09:07.874Z,32.60
2023-01-20T14:11:37.066Z,32.35
2023-01-20T14:14:05.672Z,32.49
2023-01-20T14:16:33.436Z,32.23
2023-01-20T14:19:01.763Z,32.30
2023-01-20T14:21:29.687Z,32.35
2023-01-20T14:24:00.494Z,32.07
2023-01-20T14:26:28.256Z,32.08
2023-01-20T14:28:56.024Z,32.31
2023-01-20T14:31:23.961Z,32.13
2023-01-20T14:33:51.792Z,31.90
2023-01-20T14:36:19.556Z,31.96
2023-01-20T14:38:56.947Z,32.16
2023-01-20T14:41:25.268Z,31.81
2023-01-20T14:43:53.057Z,32.06
2023-01-20T14:46:20.874Z,31.67
2023-01-20T14:48:48.694Z,31.16
2023-01-20T14:51:16.507Z,29.88
2023-01-20T14:53:44.221Z,29.01
2023-01-20T14:56:12.033Z,28.27
2023-01-20T14:58:39.763Z,27.76
2023-01-20T15:01:07.527Z,27.27
2023-01-20T15:03:35.293Z,27.05
2023-01-20T15:06:03.100Z,26.94
2023-01-20T15:08:30.996Z,21.26
2023-01-20T15:10:58.783Z,16.00
2023-01-20T15:13:26.504Z,13.46
2023-01-20T15:15:54.256Z,12.07
2023-01-20T15:18:22.298Z,10.97
2023-01-20T15:20:50.043Z,9.90
2023-01-20T15:23:17.963Z,8.67
2023-01-20T15:25:45.729Z,7.60
2023-01-20T15:28:13.485Z,7.03
2023-01-20T15:30:41.258Z,6.79
2023-01-20T15:33:08.972Z,6.33
2023-01-20T15:35:36.700Z,6.04
2023-01-20T15:38:04.455Z,6.11
2023-01-20T15:40:32.219Z,6.30
2023-01-20T15:43:00.064Z,6.51
2023-01-20T15:45:27.820Z,6.87
2023-01-20T15:47:56.186Z,7.86
2023-01-20T15:50:24.411Z,8.64
2023-01-20T15:52:52.129Z,9.18
2023-01-20T15:55:19.858Z,10.63
2023-01-20T15:57:47.825Z,11.03
2023-01-20T16:00:15.875Z,11.59
2023-01-20T16:02:43.742Z,12.90
2023-01-20T16:05:15.235Z,13.64
2023-01-20T16:07:44.329Z,14.36
2023-01-20T16:10:12.087Z,15.19
2023-01-20T16:12:39.935Z,15.91
2023-01-20T16:15:07.648Z,17.13
2023-01-20T16:17:35.383Z,17.66
2023-01-20T16:20:03.283Z,18.36
2023-01-20T16:22:31.056Z,19.13
2023-01-20T16:24:58.774Z,19.50
2023-01-20T16:27:26.630Z,20.18
2023-01-20T16:29:55.949Z,20.85
2023-01-20T16:32:24.356Z,21.45
2023-01-20T16:34:52.080Z,21.99
2023-01-20T16:37:19.852Z,22.31
2023-01-20T16:39:47.859Z,22.90
2023-01-20T16:42:15.636Z,23.02
2023-01-20T16:44:43.355Z,23.82
2023-01-20T16:47:11.094Z,24.46
2023-01-20T16:49:39.476Z,24.38
2023-01-20T16:52:07.200Z,24.07
2023-01-20T16:54:35.026Z,24.21
2023-01-20T16:57:02.868Z,23.92
2023-01-20T16:59:30.632Z,24.16
2023-01-20T17:01:58.780Z,24.31
2023-01-20T17:04:26.749Z,24.03
2023-01-20T17:06:54.743Z,24.04
2023-01-20T17:09:22.489Z,23.98
2023-01-20T17:11:50.220Z,23.59
2023-01-20T17:14:18.024Z,23.46
2023-01-20T17:16:45.898Z,23.75
2023-01-20T17:19:16.104Z,23.33
2023-01-20T17:21:45.251Z,23.20
2023-01-20T17:24:13.364Z,19.47
2023-01-20T17:26:41.833Z,15.00
2023-01-20T17:29:09.678Z,13.13
2023-01-20T17:31:37.734Z,11.78
2023-01-20T17:34:05.708Z,11.21
2023-01-20T17:36:34.804Z,10.97
2023-01-20T17:39:02.852Z,9.84
2023-01-20T17:41:30.817Z,8.98
2023-01-20T17:43:58.762Z,8.48
2023-01-20T17:46:27.731Z,7.92
2023-01-20T17:48:55.458Z,8.12
2023-01-20T17:51:23.562Z,8.42
2023-01-20T17:53:51.697Z,8.79
2023-01-20T17:56:24.306Z,9.65
2023-01-20T17:58:52.200Z,10.28
2023-01-20T18:01:20.137Z,11.26
2023-01-20T18:03:47.937Z,12.02
2023-01-20T18:06:15.922Z,13.08
2023-01-20T18:08:43.792Z,13.40
2023-01-20T18:11:11.577Z,14.32
2023-01-20T18:13:39.391Z,15.51
2023-01-20T18:16:07.629Z,15.73
2023-01-20T18:18:35.636Z,16.56
2023-01-20T18:21:03.442Z,17.65
2023-01-20T18:23:31.824Z,18.68
2023-01-20T18:25:59.578Z,18.95
2023-01-20T18:28:27.873Z,19.44
2023-01-20T18:30:55.784Z,19.83
2023-01-20T18:33:23.625Z,20.93
2023-01-20T18:35:51.603Z,21.09
2023-01-20T18:38:19.566Z,21.51
2023-01-20T18:40:47.437Z,22.57
2023-01-20T18:43:15.390Z,22.94
2023-01-20T18:45:43.195Z,23.37
2023-01-20T18:48:11.137Z,23.25
2023-01-20T18:50:40.035Z,22.86
2023-01-20T18:53:07.771Z,23.15
2023-01-20T18:55:35.597Z,23.30
2023-01-20T18:58:03.821Z,23.61
2023-01-20T19:00:31.716Z,23.67
2023-01-20T19:03:00.884Z,23.65
2023-01-20T19:05:28.619Z,23.76
2023-01-20T19:07:56.406Z,23.90
2023-01-20T19:10:24.166Z,24.08
2023-01-20T19:12:51.913Z,24.09
2023-01-20T19:15:19.682Z,24.27
2023-01-20T19:17:47.440Z,24.60
2023-01-20T19:20:17.906Z,24.46
2023-01-20T19:22:45.909Z,25.17
2023-01-20T19:25:13.828Z,25.13
2023-01-20T19:27:41.605Z,25.74
2023-01-20T19:30:10.275Z,25.23
2023-01-20T19:32:38.109Z,20.57
2023-01-20T19:35:05.859Z,14.66
2023-01-20T19:37:33.659Z,11.25
2023-01-20T19:40:01.494Z,9.79
2023-01-20T19:42:29.311Z,9.03
2023-01-20T19:44:57.125Z,8.48
2023-01-20T19:47:25.036Z,8.46
2023-01-20T19:49:52.822Z,8.60
2023-01-20T19:52:20.594Z,9.06
2023-01-20T19:54:50.350Z,9.79
2023-01-20T19:57:19.654Z,10.67
2023-01-20T19:59:47.418Z,11.06
2023-01-20T20:02:15.195Z,11.83
2023-01-20T20:04:42.901Z,12.74
2023-01-20T20:07:10.704Z,13.56
2023-01-20T20:09:38.480Z,14.52
2023-01-20T20:12:07.896Z,15.25
2023-01-20T20:14:35.649Z,15.83
2023-01-20T20:17:03.427Z,16.36
2023-01-20T20:19:31.167Z,17.63
2023-01-20T20:21:58.935Z,18.11
2023-01-20T20:24:26.691Z,18.99
2023-01-20T20:26:54.496Z,19.06
2023-01-20T20:29:22.178Z,20.04
2023-01-20T20:31:50.518Z,20.59
2023-01-20T20:34:18.445Z,20.92
2023-01-20T20:36:46.203Z,21.64
2023-01-20T20:39:13.940Z,21.98
2023-01-20T20:41:42.209Z,22.03
2023-01-20T20:44:09.949Z,22.90
2023-01-20T20:46:37.783Z,23.24
2023-01-20T20:49:05.484Z,23.39
2023-01-20T20:51:33.293Z,23.59
2023-01-20T20:54:01.052Z,23.65
2023-01-20T20:56:31.883Z,23.36
2023-01-20T20:59:03.488Z,23.82
2023-01-20T21:01:33.078Z,23.64
2023-01-20T21:04:01.027Z,24.18
2023-01-20T21:06:28.750Z,24.42
2023-01-20T21:08:56.545Z,24.70
2023-01-20T21:11:24.987Z,24.71
2023-01-20T21:13:52.841Z,25.04
2023-01-20T21:16:23.124Z,24.91
2023-01-20T21:18:52.033Z,25.25
2023-01-20T21:21:20.393Z,25.65
2023-01-20T21:23:51.792Z,25.79
2023-01-20T21:26:19.631Z,25.89
2023-01-20T21:28:49.287Z,25.56
2023-01-20T21:31:17.231Z,25.91
2023-01-20T21:33:45.843Z,25.97
2023-01-20T21:36:13.672Z,25.81
2023-01-20T21:38:42.978Z,25.92
2023-01-20T21:41:11.036Z,26.04
2023-01-20T21:43:56.482Z,26.15
2023-01-20T21:46:24.395Z,26.15
2023-01-20T21:49:09.911Z,26.29
2023-01-20T21:51:55.046Z,26.74
2023-01-20T21:54:22.766Z,26.80
2023-01-20T21:56:50.577Z,26.68
2023-01-20T21:59:18.329Z,27.22
2023-01-20T22:01:46.075Z,27.39
2023-01-20T22:04:13.966Z,27.11
2023-01-20T22:06:41.744Z,27.77
2023-01-20T22:09:09.667Z,28.02
2023-01-20T22:11:37.431Z,27.83
2023-01-20T22:14:05.216Z,27.97
2023-01-20T22:16:33.211Z,27.96
2023-01-20T22:19:01.044Z,28.17
2023-01-20T22:21:29.589Z,28.37
2023-01-20T22:23:57.353Z,28.47
2023-01-20T22:26:25.054Z,28.17
2023-01-20T22:28:52.835Z,28.46
2023-01-20T22:31:23.469Z,28.55
2023-01-20T22:33:51.708Z,28.74
2023-01-20T22:36:19.453Z,28.92
2023-01-20T22:38:47.316Z,28.42
2023-01-20T22:41:15.264Z,28.52
2023-01-20T22:43:44.186Z,28.82
2023-01-20T22:46:12.006Z,28.86
2023-01-20T22:48:39.810Z,28.99
2023-01-20T22:51:07.506Z,28.81
2023-01-20T22:53:35.280Z,28.39
2023-01-20T22:56:03.380Z,28.85
2023-01-20T22:58:31.085Z,28.85
2023-01-20T23:00:58.937Z,28.88
2023-01-20T23:03:26.685Z,28.92
2023-01-20T23:05:54.375Z,28.93
2023-01-20T23:08:22.149Z,28.59
2023-01-20T23:10:49.864Z,28.58
2023-01-20T23:13:17.605Z,29.13
2023-01-20T23:15:45.331Z,28.67
2023-01-20T23:18:13.222Z,28.81
2023-01-20T23:20:40.981Z,28.59
2023-01-20T23:23:10.682Z,28.77
2023-01-20T23:25:38.428Z,28.81
2023-01-20T23:28:06.177Z,28.93
2023-01-20T23:30:33.925Z,28.56
2023-01-20T23:33:01.653Z,28.54
2023-01-20T23:35:29.415Z,28.67
2023-01-20T23:37:57.092Z,28.78
2023-01-20T23:40:26.101Z,28.41
2023-01-20T23:42:53.846Z,28.61
2023-01-20T23:45:21.551Z,28.54
2023-01-20T23:47:49.278Z,28.98
2023-01-20T23:50:17.428Z,28.89
2023-01-20T23:52:45.344Z,29.07
2023-01-20T23:55:13.091Z,28.55
2023-01-20T23:57:40.792Z,28.88
